sensor_id;sensor_type;location;lat;lon;timestamp;P1;durP1;ratioP1;P2;durP2;ratioP2
19384;SDS011;9828;54.122;17.974;2023-05-07T00:02:38;16.43;;;9.07;;
19384;SDS011;9828;54.122;17.974;2023-05-07T00:07:59;16.00;;;8.13;;
19384;SDS011;9828;54.122;17.974;2023-05-07T00:13:20;14.33;;;7.80;;
19384;SDS011;9828;54.122;17.974;2023-05-07T00:18:42;13.30;;;6.90;;
19384;SDS011;9828;54.122;17.974;2023-05-07T00:24:03;11.77;;;7.37;;
19384;SDS011;9828;54.122;17.974;2023-05-07T00:29:24;14.07;;;7.17;;
19384;SDS011;9828;54.122;17.974;2023-05-07T00:34:45;12.77;;;7.30;;
19384;SDS011;9828;54.122;17.974;2023-05-07T00:40:06;12.10;;;7.30;;
19384;SDS011;9828;54.122;17.974;2023-05-07T00:45:29;12.40;;;6.53;;
19384;SDS011;9828;54.122;17.974;2023-05-07T00:50:50;11.13;;;6.93;;
19384;SDS011;9828;54.122;17.974;2023-05-07T00:56:12;13.93;;;7.37;;
19384;SDS011;9828;54.122;17.974;2023-05-07T01:01:33;10.47;;;6.67;;
19384;SDS011;9828;54.122;17.974;2023-05-07T01:06:55;11.73;;;7.10;;
19384;SDS011;9828;54.122;17.974;2023-05-07T01:12:17;14.67;;;7.23;;
19384;SDS011;9828;54.122;17.974;2023-05-07T01:17:38;14.23;;;7.17;;
19384;SDS011;9828;54.122;17.974;2023-05-07T01:23:06;15.27;;;8.23;;
19384;SDS011;9828;54.122;17.974;2023-05-07T01:28:28;14.27;;;8.37;;
19384;SDS011;9828;54.122;17.974;2023-05-07T01:34:07;13.87;;;8.27;;
19384;SDS011;9828;54.122;17.974;2023-05-07T01:39:31;12.37;;;8.30;;
19384;SDS011;9828;54.122;17.974;2023-05-07T01:44:53;16.13;;;8.77;;
19384;SDS011;9828;54.122;17.974;2023-05-07T01:50:14;15.10;;;8.43;;
19384;SDS011;9828;54.122;17.974;2023-05-07T01:55:38;13.97;;;7.37;;
19384;SDS011;9828;54.122;17.974;2023-05-07T02:01:01;11.17;;;6.70;;
19384;SDS011;9828;54.122;17.974;2023-05-07T02:06:23;12.93;;;6.83;;
19384;SDS011;9828;54.122;17.974;2023-05-07T02:11:48;12.47;;;6.87;;
19384;SDS011;9828;54.122;17.974;2023-05-07T02:17:11;11.70;;;7.30;;
19384;SDS011;9828;54.122;17.974;2023-05-07T02:22:33;12.73;;;7.37;;
19384;SDS011;9828;54.122;17.974;2023-05-07T02:27:54;15.47;;;7.07;;
19384;SDS011;9828;54.122;17.974;2023-05-07T02:33:24;11.73;;;6.70;;
19384;SDS011;9828;54.122;17.974;2023-05-07T02:38:46;8.73;;;6.67;;
19384;SDS011;9828;54.122;17.974;2023-05-07T02:44:07;8.73;;;6.57;;
19384;SDS011;9828;54.122;17.974;2023-05-07T02:49:28;12.60;;;6.80;;
19384;SDS011;9828;54.122;17.974;2023-05-07T02:54:50;10.70;;;6.53;;
19384;SDS011;9828;54.122;17.974;2023-05-07T03:00:15;7.63;;;5.77;;
19384;SDS011;9828;54.122;17.974;2023-05-07T03:05:47;8.63;;;5.43;;
19384;SDS011;9828;54.122;17.974;2023-05-07T03:11:07;11.00;;;6.50;;
19384;SDS011;9828;54.122;17.974;2023-05-07T03:16:29;11.57;;;6.70;;
19384;SDS011;9828;54.122;17.974;2023-05-07T03:21:50;9.93;;;6.60;;
19384;SDS011;9828;54.122;17.974;2023-05-07T03:27:11;11.10;;;6.77;;
19384;SDS011;9828;54.122;17.974;2023-05-07T03:32:33;15.20;;;7.93;;
19384;SDS011;9828;54.122;17.974;2023-05-07T03:37:58;12.03;;;7.10;;
19384;SDS011;9828;54.122;17.974;2023-05-07T03:43:22;14.50;;;7.87;;
19384;SDS011;9828;54.122;17.974;2023-05-07T03:48:52;27.50;;;11.00;;
19384;SDS011;9828;54.122;17.974;2023-05-07T03:54:13;48.20;;;17.63;;
19384;SDS011;9828;54.122;17.974;2023-05-07T03:59:38;49.53;;;20.73;;
19384;SDS011;9828;54.122;17.974;2023-05-07T04:05:00;35.93;;;18.60;;
19384;SDS011;9828;54.122;17.974;2023-05-07T04:10:21;27.53;;;13.77;;
19384;SDS011;9828;54.122;17.974;2023-05-07T04:15:46;22.93;;;11.90;;
19384;SDS011;9828;54.122;17.974;2023-05-07T04:21:18;15.37;;;9.57;;
19384;SDS011;9828;54.122;17.974;2023-05-07T04:26:41;14.63;;;7.50;;
19384;SDS011;9828;54.122;17.974;2023-05-07T04:32:03;11.60;;;6.27;;
19384;SDS011;9828;54.122;17.974;2023-05-07T04:37:25;10.50;;;6.30;;
19384;SDS011;9828;54.122;17.974;2023-05-07T04:42:47;12.53;;;6.23;;
19384;SDS011;9828;54.122;17.974;2023-05-07T04:48:09;8.67;;;4.90;;
19384;SDS011;9828;54.122;17.974;2023-05-07T04:53:33;6.60;;;4.50;;
19384;SDS011;9828;54.122;17.974;2023-05-07T04:58:54;9.27;;;4.20;;
19384;SDS011;9828;54.122;17.974;2023-05-07T05:04:15;6.37;;;4.20;;
19384;SDS011;9828;54.122;17.974;2023-05-07T05:09:36;5.00;;;3.70;;
19384;SDS011;9828;54.122;17.974;2023-05-07T05:14:57;7.57;;;3.60;;
19384;SDS011;9828;54.122;17.974;2023-05-07T05:20:18;7.37;;;4.10;;
19384;SDS011;9828;54.122;17.974;2023-05-07T05:25:41;8.13;;;3.80;;
19384;SDS011;9828;54.122;17.974;2023-05-07T05:31:05;7.17;;;4.00;;
19384;SDS011;9828;54.122;17.974;2023-05-07T05:36:29;7.67;;;3.43;;
19384;SDS011;9828;54.122;17.974;2023-05-07T05:41:51;6.00;;;3.53;;
19384;SDS011;9828;54.122;17.974;2023-05-07T05:47:13;8.07;;;3.90;;
19384;SDS011;9828;54.122;17.974;2023-05-07T05:52:35;5.07;;;3.00;;
19384;SDS011;9828;54.122;17.974;2023-05-07T05:57:56;7.47;;;3.10;;
19384;SDS011;9828;54.122;17.974;2023-05-07T06:03:19;5.77;;;3.87;;
19384;SDS011;9828;54.122;17.974;2023-05-07T06:08:41;6.17;;;3.80;;
19384;SDS011;9828;54.122;17.974;2023-05-07T06:14:05;4.67;;;3.50;;
19384;SDS011;9828;54.122;17.974;2023-05-07T06:19:27;13.30;;;7.03;;
19384;SDS011;9828;54.122;17.974;2023-05-07T06:24:50;4.30;;;3.20;;
19384;SDS011;9828;54.122;17.974;2023-05-07T06:30:12;4.32;;;2.85;;
19384;SDS011;9828;54.122;17.974;2023-05-07T06:35:33;4.00;;;2.90;;
19384;SDS011;9828;54.122;17.974;2023-05-07T06:40:54;4.72;;;3.05;;
19384;SDS011;9828;54.122;17.974;2023-05-07T06:46:18;3.95;;;2.70;;
19384;SDS011;9828;54.122;17.974;2023-05-07T06:51:40;3.67;;;2.08;;
19384;SDS011;9828;54.122;17.974;2023-05-07T06:57:01;6.47;;;2.85;;
19384;SDS011;9828;54.122;17.974;2023-05-07T07:02:23;7.47;;;2.72;;
19384;SDS011;9828;54.122;17.974;2023-05-07T07:07:45;5.68;;;2.53;;
19384;SDS011;9828;54.122;17.974;2023-05-07T07:13:13;4.10;;;2.70;;
19384;SDS011;9828;54.122;17.974;2023-05-07T07:18:35;7.00;;;3.03;;
19384;SDS011;9828;54.122;17.974;2023-05-07T07:23:57;5.68;;;2.25;;
19384;SDS011;9828;54.122;17.974;2023-05-07T07:29:18;2.95;;;2.13;;
19384;SDS011;9828;54.122;17.974;2023-05-07T07:34:40;5.90;;;2.13;;
19384;SDS011;9828;54.122;17.974;2023-05-07T07:40:02;3.35;;;2.20;;
19384;SDS011;9828;54.122;17.974;2023-05-07T07:45:26;4.03;;;2.10;;
19384;SDS011;9828;54.122;17.974;2023-05-07T07:50:51;4.88;;;2.20;;
19384;SDS011;9828;54.122;17.974;2023-05-07T07:56:12;2.42;;;2.10;;
19384;SDS011;9828;54.122;17.974;2023-05-07T08:01:33;6.00;;;3.28;;
19384;SDS011;9828;54.122;17.974;2023-05-07T08:06:54;4.68;;;2.33;;
19384;SDS011;9828;54.122;17.974;2023-05-07T08:12:16;3.00;;;1.92;;
19384;SDS011;9828;54.122;17.974;2023-05-07T08:17:37;4.22;;;2.28;;
19384;SDS011;9828;54.122;17.974;2023-05-07T08:22:59;4.90;;;2.22;;
19384;SDS011;9828;54.122;17.974;2023-05-07T08:28:20;4.72;;;2.00;;
19384;SDS011;9828;54.122;17.974;2023-05-07T08:33:42;3.17;;;2.22;;
19384;SDS011;9828;54.122;17.974;2023-05-07T08:39:03;8.40;;;3.80;;
19384;SDS011;9828;54.122;17.974;2023-05-07T08:44:25;4.15;;;2.60;;
19384;SDS011;9828;54.122;17.974;2023-05-07T08:49:50;7.50;;;4.10;;
19384;SDS011;9828;54.122;17.974;2023-05-07T08:55:12;3.03;;;1.90;;
19384;SDS011;9828;54.122;17.974;2023-05-07T09:00:36;3.75;;;1.63;;
19384;SDS011;9828;54.122;17.974;2023-05-07T09:05:58;3.08;;;1.60;;
19384;SDS011;9828;54.122;17.974;2023-05-07T09:11:21;4.53;;;1.33;;
19384;SDS011;9828;54.122;17.974;2023-05-07T09:16:45;2.25;;;1.30;;
19384;SDS011;9828;54.122;17.974;2023-05-07T09:22:07;4.10;;;1.90;;
19384;SDS011;9828;54.122;17.974;2023-05-07T09:27:40;4.32;;;1.90;;
19384;SDS011;9828;54.122;17.974;2023-05-07T09:33:03;3.88;;;1.58;;
19384;SDS011;9828;54.122;17.974;2023-05-07T09:38:28;3.10;;;1.73;;
19384;SDS011;9828;54.122;17.974;2023-05-07T09:43:55;3.58;;;1.88;;
19384;SDS011;9828;54.122;17.974;2023-05-07T09:49:23;3.92;;;2.03;;
19384;SDS011;9828;54.122;17.974;2023-05-07T09:54:52;3.45;;;1.70;;
19384;SDS011;9828;54.122;17.974;2023-05-07T10:00:19;2.83;;;1.60;;
19384;SDS011;9828;54.122;17.974;2023-05-07T10:05:41;2.15;;;1.70;;
19384;SDS011;9828;54.122;17.974;2023-05-07T10:11:06;6.93;;;2.30;;
19384;SDS011;9828;54.122;17.974;2023-05-07T10:16:32;7.55;;;3.10;;
19384;SDS011;9828;54.122;17.974;2023-05-07T10:22:00;2.75;;;1.85;;
19384;SDS011;9828;54.122;17.974;2023-05-07T10:27:27;4.10;;;1.60;;
19384;SDS011;9828;54.122;17.974;2023-05-07T10:32:51;12.20;;;2.85;;
19384;SDS011;9828;54.122;17.974;2023-05-07T10:38:21;3.65;;;1.88;;
19384;SDS011;9828;54.122;17.974;2023-05-07T10:43:43;4.82;;;1.60;;
19384;SDS011;9828;54.122;17.974;2023-05-07T10:49:17;3.00;;;1.80;;
19384;SDS011;9828;54.122;17.974;2023-05-07T11:01:02;2.58;;;1.15;;
19384;SDS011;9828;54.122;17.974;2023-05-07T11:06:29;1.77;;;1.20;;
19384;SDS011;9828;54.122;17.974;2023-05-07T11:12:00;3.92;;;1.58;;
19384;SDS011;9828;54.122;17.974;2023-05-07T11:17:30;3.08;;;1.50;;
19384;SDS011;9828;54.122;17.974;2023-05-07T11:22:59;4.15;;;1.73;;
19384;SDS011;9828;54.122;17.974;2023-05-07T11:28:30;4.70;;;1.55;;
19384;SDS011;9828;54.122;17.974;2023-05-07T11:33:56;8.43;;;5.22;;
19384;SDS011;9828;54.122;17.974;2023-05-07T11:39:31;2.38;;;1.45;;
19384;SDS011;9828;54.122;17.974;2023-05-07T11:44:56;3.05;;;1.40;;
19384;SDS011;9828;54.122;17.974;2023-05-07T11:50:17;1.38;;;1.27;;
19384;SDS011;9828;54.122;17.974;2023-05-07T11:55:38;1.40;;;1.20;;
19384;SDS011;9828;54.122;17.974;2023-05-07T12:01:01;7.05;;;1.60;;
19384;SDS011;9828;54.122;17.974;2023-05-07T12:06:23;3.72;;;1.50;;
19384;SDS011;9828;54.122;17.974;2023-05-07T12:11:45;1.42;;;1.13;;
19384;SDS011;9828;54.122;17.974;2023-05-07T12:17:07;2.40;;;1.50;;
19384;SDS011;9828;54.122;17.974;2023-05-07T12:22:29;5.97;;;1.77;;
19384;SDS011;9828;54.122;17.974;2023-05-07T12:27:53;2.65;;;1.75;;
19384;SDS011;9828;54.122;17.974;2023-05-07T12:33:18;2.08;;;1.33;;
19384;SDS011;9828;54.122;17.974;2023-05-07T12:38:43;3.45;;;1.50;;
19384;SDS011;9828;54.122;17.974;2023-05-07T12:44:05;2.80;;;1.85;;
19384;SDS011;9828;54.122;17.974;2023-05-07T12:49:27;3.92;;;1.55;;
19384;SDS011;9828;54.122;17.974;2023-05-07T12:54:48;1.85;;;1.27;;
19384;SDS011;9828;54.122;17.974;2023-05-07T13:00:09;2.97;;;1.80;;
19384;SDS011;9828;54.122;17.974;2023-05-07T13:05:31;2.05;;;1.80;;
19384;SDS011;9828;54.122;17.974;2023-05-07T13:10:53;3.78;;;1.60;;
19384;SDS011;9828;54.122;17.974;2023-05-07T13:16:14;7.50;;;2.25;;
19384;SDS011;9828;54.122;17.974;2023-05-07T13:21:35;3.25;;;1.85;;
19384;SDS011;9828;54.122;17.974;2023-05-07T13:26:55;1.77;;;1.25;;
19384;SDS011;9828;54.122;17.974;2023-05-07T13:32:17;2.72;;;1.80;;
19384;SDS011;9828;54.122;17.974;2023-05-07T13:37:38;5.13;;;1.95;;
19384;SDS011;9828;54.122;17.974;2023-05-07T13:42:59;1.75;;;1.27;;
19384;SDS011;9828;54.122;17.974;2023-05-07T13:48:22;6.22;;;2.10;;
19384;SDS011;9828;54.122;17.974;2023-05-07T13:53:43;3.38;;;2.10;;
19384;SDS011;9828;54.122;17.974;2023-05-07T13:59:04;3.42;;;1.70;;
19384;SDS011;9828;54.122;17.974;2023-05-07T14:04:25;4.55;;;2.13;;
19384;SDS011;9828;54.122;17.974;2023-05-07T14:09:47;4.53;;;2.38;;
19384;SDS011;9828;54.122;17.974;2023-05-07T14:15:08;4.25;;;2.30;;
19384;SDS011;9828;54.122;17.974;2023-05-07T14:20:29;5.22;;;2.13;;
19384;SDS011;9828;54.122;17.974;2023-05-07T14:25:51;3.00;;;1.65;;
19384;SDS011;9828;54.122;17.974;2023-05-07T14:31:16;2.67;;;1.85;;
19384;SDS011;9828;54.122;17.974;2023-05-07T14:36:37;2.00;;;1.55;;
19384;SDS011;9828;54.122;17.974;2023-05-07T14:41:58;7.00;;;2.17;;
19384;SDS011;9828;54.122;17.974;2023-05-07T14:47:19;8.07;;;2.60;;
19384;SDS011;9828;54.122;17.974;2023-05-07T14:52:40;3.42;;;2.80;;
19384;SDS011;9828;54.122;17.974;2023-05-07T14:58:01;5.65;;;3.10;;
19384;SDS011;9828;54.122;17.974;2023-05-07T15:03:22;8.13;;;4.68;;
19384;SDS011;9828;54.122;17.974;2023-05-07T15:08:43;10.82;;;5.05;;
19384;SDS011;9828;54.122;17.974;2023-05-07T15:14:04;4.95;;;3.10;;
19384;SDS011;9828;54.122;17.974;2023-05-07T15:19:25;5.00;;;3.10;;
19384;SDS011;9828;54.122;17.974;2023-05-07T15:24:49;5.10;;;2.78;;
19384;SDS011;9828;54.122;17.974;2023-05-07T15:30:10;5.43;;;2.60;;
19384;SDS011;9828;54.122;17.974;2023-05-07T15:35:32;3.40;;;2.40;;
19384;SDS011;9828;54.122;17.974;2023-05-07T15:40:53;10.70;;;3.83;;
19384;SDS011;9828;54.122;17.974;2023-05-07T15:46:19;3.38;;;2.08;;
19384;SDS011;9828;54.122;17.974;2023-05-07T15:51:41;4.13;;;2.53;;
19384;SDS011;9828;54.122;17.974;2023-05-07T15:57:02;5.07;;;2.92;;
19384;SDS011;9828;54.122;17.974;2023-05-07T16:02:23;4.30;;;2.50;;
19384;SDS011;9828;54.122;17.974;2023-05-07T16:07:44;4.03;;;2.35;;
19384;SDS011;9828;54.122;17.974;2023-05-07T16:13:05;4.53;;;2.42;;
19384;SDS011;9828;54.122;17.974;2023-05-07T16:18:27;6.43;;;3.00;;
19384;SDS011;9828;54.122;17.974;2023-05-07T16:23:47;4.53;;;2.50;;
19384;SDS011;9828;54.122;17.974;2023-05-07T16:29:10;4.47;;;2.45;;
19384;SDS011;9828;54.122;17.974;2023-05-07T16:34:30;5.65;;;2.70;;
19384;SDS011;9828;54.122;17.974;2023-05-07T16:39:51;6.30;;;3.65;;
19384;SDS011;9828;54.122;17.974;2023-05-07T16:45:12;7.50;;;4.10;;
19384;SDS011;9828;54.122;17.974;2023-05-07T16:50:33;15.80;;;5.13;;
19384;SDS011;9828;54.122;17.974;2023-05-07T16:55:54;8.82;;;4.90;;
19384;SDS011;9828;54.122;17.974;2023-05-07T17:01:16;8.70;;;4.15;;
19384;SDS011;9828;54.122;17.974;2023-05-07T17:06:38;8.18;;;3.83;;
19384;SDS011;9828;54.122;17.974;2023-05-07T17:12:00;7.40;;;4.57;;
19384;SDS011;9828;54.122;17.974;2023-05-07T17:17:22;7.72;;;4.10;;
19384;SDS011;9828;54.122;17.974;2023-05-07T17:22:43;5.78;;;4.00;;
19384;SDS011;9828;54.122;17.974;2023-05-07T17:28:04;9.70;;;5.45;;
19384;SDS011;9828;54.122;17.974;2023-05-07T17:33:25;12.93;;;5.68;;
19384;SDS011;9828;54.122;17.974;2023-05-07T17:38:46;10.98;;;4.50;;
19384;SDS011;9828;54.122;17.974;2023-05-07T17:44:08;10.07;;;4.07;;
19384;SDS011;9828;54.122;17.974;2023-05-07T17:49:29;6.95;;;3.85;;
19384;SDS011;9828;54.122;17.974;2023-05-07T17:54:50;9.75;;;4.57;;
19384;SDS011;9828;54.122;17.974;2023-05-07T18:00:11;6.55;;;4.53;;
19384;SDS011;9828;54.122;17.974;2023-05-07T18:05:36;8.23;;;3.78;;
19384;SDS011;9828;54.122;17.974;2023-05-07T18:10:57;8.13;;;4.03;;
19384;SDS011;9828;54.122;17.974;2023-05-07T18:16:18;7.18;;;3.75;;
19384;SDS011;9828;54.122;17.974;2023-05-07T18:21:40;5.50;;;3.08;;
19384;SDS011;9828;54.122;17.974;2023-05-07T18:27:01;7.60;;;4.20;;
19384;SDS011;9828;54.122;17.974;2023-05-07T18:32:22;9.55;;;5.63;;
19384;SDS011;9828;54.122;17.974;2023-05-07T18:37:43;8.43;;;4.97;;
19384;SDS011;9828;54.122;17.974;2023-05-07T18:43:04;6.97;;;4.38;;
19384;SDS011;9828;54.122;17.974;2023-05-07T18:48:26;20.92;;;9.15;;
19384;SDS011;9828;54.122;17.974;2023-05-07T18:53:47;21.25;;;10.88;;
19384;SDS011;9828;54.122;17.974;2023-05-07T18:59:08;12.48;;;6.10;;
19384;SDS011;9828;54.122;17.974;2023-05-07T19:04:29;9.73;;;5.00;;
19384;SDS011;9828;54.122;17.974;2023-05-07T19:09:50;6.28;;;4.05;;
19384;SDS011;9828;54.122;17.974;2023-05-07T19:15:21;8.13;;;4.03;;
19384;SDS011;9828;54.122;17.974;2023-05-07T19:20:42;6.55;;;4.20;;
19384;SDS011;9828;54.122;17.974;2023-05-07T19:26:03;7.18;;;3.67;;
19384;SDS011;9828;54.122;17.974;2023-05-07T19:31:25;7.00;;;4.40;;
19384;SDS011;9828;54.122;17.974;2023-05-07T19:36:47;6.82;;;4.13;;
19384;SDS011;9828;54.122;17.974;2023-05-07T19:42:08;9.05;;;4.60;;
19384;SDS011;9828;54.122;17.974;2023-05-07T19:47:29;6.60;;;4.18;;
19384;SDS011;9828;54.122;17.974;2023-05-07T19:52:50;9.30;;;4.82;;
19384;SDS011;9828;54.122;17.974;2023-05-07T19:58:11;6.57;;;4.38;;
19384;SDS011;9828;54.122;17.974;2023-05-07T20:03:32;7.05;;;4.15;;
19384;SDS011;9828;54.122;17.974;2023-05-07T20:08:54;6.07;;;3.92;;
19384;SDS011;9828;54.122;17.974;2023-05-07T20:14:15;5.50;;;4.03;;
19384;SDS011;9828;54.122;17.974;2023-05-07T20:19:36;6.97;;;4.10;;
19384;SDS011;9828;54.122;17.974;2023-05-07T20:24:57;6.60;;;4.53;;
19384;SDS011;9828;54.122;17.974;2023-05-07T20:30:18;8.37;;;4.50;;
19384;SDS011;9828;54.122;17.974;2023-05-07T20:35:43;9.47;;;4.37;;
19384;SDS011;9828;54.122;17.974;2023-05-07T20:41:08;9.70;;;4.00;;
19384;SDS011;9828;54.122;17.974;2023-05-07T20:46:30;6.17;;;3.57;;
19384;SDS011;9828;54.122;17.974;2023-05-07T20:51:52;8.87;;;4.83;;
19384;SDS011;9828;54.122;17.974;2023-05-07T20:57:12;7.03;;;3.77;;
19384;SDS011;9828;54.122;17.974;2023-05-07T21:02:34;9.00;;;4.03;;
19384;SDS011;9828;54.122;17.974;2023-05-07T21:07:55;7.20;;;4.10;;
19384;SDS011;9828;54.122;17.974;2023-05-07T21:13:16;8.17;;;3.60;;
19384;SDS011;9828;54.122;17.974;2023-05-07T21:18:38;5.60;;;3.50;;
19384;SDS011;9828;54.122;17.974;2023-05-07T21:23:59;6.83;;;3.90;;
19384;SDS011;9828;54.122;17.974;2023-05-07T21:29:20;8.50;;;4.27;;
19384;SDS011;9828;54.122;17.974;2023-05-07T21:34:41;9.47;;;5.60;;
19384;SDS011;9828;54.122;17.974;2023-05-07T21:40:03;8.73;;;4.53;;
19384;SDS011;9828;54.122;17.974;2023-05-07T21:45:25;6.17;;;4.10;;
19384;SDS011;9828;54.122;17.974;2023-05-07T21:51:07;8.20;;;3.67;;
19384;SDS011;9828;54.122;17.974;2023-05-07T21:56:27;6.50;;;4.07;;
19384;SDS011;9828;54.122;17.974;2023-05-07T22:01:48;5.33;;;3.47;;
19384;SDS011;9828;54.122;17.974;2023-05-07T22:07:09;7.13;;;3.73;;
19384;SDS011;9828;54.122;17.974;2023-05-07T22:12:30;7.70;;;4.73;;
19384;SDS011;9828;54.122;17.974;2023-05-07T22:17:52;6.97;;;4.07;;
19384;SDS011;9828;54.122;17.974;2023-05-07T22:23:13;9.77;;;3.80;;
19384;SDS011;9828;54.122;17.974;2023-05-07T22:28:34;7.67;;;3.83;;
19384;SDS011;9828;54.122;17.974;2023-05-07T22:33:55;7.27;;;4.30;;
19384;SDS011;9828;54.122;17.974;2023-05-07T22:39:16;7.87;;;4.10;;
19384;SDS011;9828;54.122;17.974;2023-05-07T22:44:37;6.50;;;4.20;;
19384;SDS011;9828;54.122;17.974;2023-05-07T22:49:58;10.87;;;5.87;;
19384;SDS011;9828;54.122;17.974;2023-05-07T22:55:19;8.60;;;4.80;;
19384;SDS011;9828;54.122;17.974;2023-05-07T23:00:40;8.77;;;5.20;;
19384;SDS011;9828;54.122;17.974;2023-05-07T23:06:01;9.00;;;3.70;;
19384;SDS011;9828;54.122;17.974;2023-05-07T23:11:23;7.63;;;4.53;;
19384;SDS011;9828;54.122;17.974;2023-05-07T23:16:44;9.33;;;4.33;;
19384;SDS011;9828;54.122;17.974;2023-05-07T23:22:06;14.97;;;4.37;;
19384;SDS011;9828;54.122;17.974;2023-05-07T23:27:27;13.90;;;4.57;;
19384;SDS011;9828;54.122;17.974;2023-05-07T23:32:48;7.53;;;4.40;;
19384;SDS011;9828;54.122;17.974;2023-05-07T23:38:08;9.27;;;4.87;;
19384;SDS011;9828;54.122;17.974;2023-05-07T23:43:29;8.30;;;4.67;;
19384;SDS011;9828;54.122;17.974;2023-05-07T23:48:50;9.10;;;5.00;;
19384;SDS011;9828;54.122;17.974;2023-05-07T23:54:11;8.60;;;4.30;;
19384;SDS011;9828;54.122;17.974;2023-05-07T23:59:33;10.23;;;5.07;;
